sensor_id;sensor_type;location;lat;lon;timestamp;temperature;humidity
43810;DHT22;29440;48.208;11.162;2022-10-31T00:02:04;10.50;99.90
43810;DHT22;29440;48.208;11.162;2022-10-31T00:04:30;10.50;99.90
43810;DHT22;29440;48.208;11.162;2022-10-31T00:06:55;10.60;99.90
43810;DHT22;29440;48.208;11.162;2022-10-31T00:09:21;10.50;99.90
43810;DHT22;29440;48.208;11.162;2022-10-31T00:11:46;10.50;99.90
43810;DHT22;29440;48.208;11.162;2022-10-31T00:14:12;10.50;99.90
43810;DHT22;29440;48.208;11.162;2022-10-31T00:16:37;10.50;99.90
43810;DHT22;29440;48.208;11.162;2022-10-31T00:19:05;10.50;99.90
43810;DHT22;29440;48.208;11.162;2022-10-31T00:21:32;10.50;99.90
43810;DHT22;29440;48.208;11.162;2022-10-31T00:23:59;10.50;99.90
43810;DHT22;29440;48.208;11.162;2022-10-31T00:26:29;10.50;99.90
43810;DHT22;29440;48.208;11.162;2022-10-31T00:28:56;10.50;99.90
43810;DHT22;29440;48.208;11.162;2022-10-31T00:31:21;10.50;99.90
43810;DHT22;29440;48.208;11.162;2022-10-31T00:33:47;10.50;99.90
43810;DHT22;29440;48.208;11.162;2022-10-31T00:36:15;10.40;99.90
43810;DHT22;29440;48.208;11.162;2022-10-31T00:38:41;10.50;99.90
43810;DHT22;29440;48.208;11.162;2022-10-31T00:41:07;10.40;99.90
43810;DHT22;29440;48.208;11.162;2022-10-31T00:43:34;10.40;99.90
43810;DHT22;29440;48.208;11.162;2022-10-31T00:45:59;10.40;99.90
43810;DHT22;29440;48.208;11.162;2022-10-31T00:48:25;10.30;99.90
43810;DHT22;29440;48.208;11.162;2022-10-31T00:50:50;10.30;99.90
43810;DHT22;29440;48.208;11.162;2022-10-31T00:53:16;10.20;99.90
43810;DHT22;29440;48.208;11.162;2022-10-31T00:55:41;10.20;99.90
43810;DHT22;29440;48.208;11.162;2022-10-31T00:58:07;10.20;99.90
43810;DHT22;29440;48.208;11.162;2022-10-31T01:00:33;10.10;99.90
43810;DHT22;29440;48.208;11.162;2022-10-31T01:02:59;10.20;99.90
43810;DHT22;29440;48.208;11.162;2022-10-31T01:05:24;10.20;99.90
43810;DHT22;29440;48.208;11.162;2022-10-31T01:07:50;10.20;99.90
43810;DHT22;29440;48.208;11.162;2022-10-31T01:10:16;10.20;99.90
43810;DHT22;29440;48.208;11.162;2022-10-31T01:12:45;10.20;99.90
43810;DHT22;29440;48.208;11.162;2022-10-31T01:15:13;10.20;99.90
43810;DHT22;29440;48.208;11.162;2022-10-31T01:17:39;10.10;99.90
43810;DHT22;29440;48.208;11.162;2022-10-31T01:20:06;10.10;99.90
43810;DHT22;29440;48.208;11.162;2022-10-31T01:22:33;10.10;99.90
43810;DHT22;29440;48.208;11.162;2022-10-31T01:24:59;10.10;99.90
43810;DHT22;29440;48.208;11.162;2022-10-31T01:27:24;10.10;99.90
43810;DHT22;29440;48.208;11.162;2022-10-31T01:29:50;10.00;99.90
43810;DHT22;29440;48.208;11.162;2022-10-31T01:32:15;10.00;99.90
43810;DHT22;29440;48.208;11.162;2022-10-31T01:34:41;10.00;99.90
43810;DHT22;29440;48.208;11.162;2022-10-31T01:37:07;10.00;99.90
43810;DHT22;29440;48.208;11.162;2022-10-31T01:39:32;10.00;99.90
43810;DHT22;29440;48.208;11.162;2022-10-31T01:41:58;9.90;99.90
43810;DHT22;29440;48.208;11.162;2022-10-31T01:47:08;9.90;99.90
43810;DHT22;29440;48.208;11.162;2022-10-31T01:49:50;9.90;99.90
43810;DHT22;29440;48.208;11.162;2022-10-31T01:54:54;9.90;99.90
43810;DHT22;29440;48.208;11.162;2022-10-31T01:57:22;9.90;99.90
43810;DHT22;29440;48.208;11.162;2022-10-31T01:59:50;9.90;99.90
43810;DHT22;29440;48.208;11.162;2022-10-31T02:02:17;9.90;99.90
43810;DHT22;29440;48.208;11.162;2022-10-31T02:04:44;9.80;99.90
43810;DHT22;29440;48.208;11.162;2022-10-31T02:07:27;9.80;99.90
43810;DHT22;29440;48.208;11.162;2022-10-31T02:09:53;9.80;99.90
43810;DHT22;29440;48.208;11.162;2022-10-31T02:12:20;9.80;99.90
43810;DHT22;29440;48.208;11.162;2022-10-31T02:14:46;9.80;99.90
43810;DHT22;29440;48.208;11.162;2022-10-31T02:17:12;9.80;99.90
43810;DHT22;29440;48.208;11.162;2022-10-31T02:20:05;9.90;99.90
43810;DHT22;29440;48.208;11.162;2022-10-31T02:31:13;9.80;99.90
43810;DHT22;29440;48.208;11.162;2022-10-31T02:39:06;9.70;99.90
43810;DHT22;29440;48.208;11.162;2022-10-31T02:41:48;9.70;99.90
43810;DHT22;29440;48.208;11.162;2022-10-31T02:44:16;9.70;99.90
43810;DHT22;29440;48.208;11.162;2022-10-31T02:47:11;9.70;99.90
43810;DHT22;29440;48.208;11.162;2022-10-31T02:49:43;9.70;99.90
43810;DHT22;29440;48.208;11.162;2022-10-31T02:52:18;9.70;99.90
43810;DHT22;29440;48.208;11.162;2022-10-31T02:54:45;9.70;99.90
43810;DHT22;29440;48.208;11.162;2022-10-31T02:57:12;9.80;99.90
43810;DHT22;29440;48.208;11.162;2022-10-31T02:59:42;9.60;99.90
43810;DHT22;29440;48.208;11.162;2022-10-31T03:10:59;9.50;99.90
43810;DHT22;29440;48.208;11.162;2022-10-31T03:18:58;9.30;99.90
43810;DHT22;29440;48.208;11.162;2022-10-31T03:24:00;9.30;99.90
43810;DHT22;29440;48.208;11.162;2022-10-31T03:26:26;9.20;99.90
43810;DHT22;29440;48.208;11.162;2022-10-31T03:29:04;9.20;99.90
43810;DHT22;29440;48.208;11.162;2022-10-31T03:31:35;9.20;99.90
43810;DHT22;29440;48.208;11.162;2022-10-31T03:34:02;9.20;99.90
43810;DHT22;29440;48.208;11.162;2022-10-31T03:36:30;9.10;99.90
43810;DHT22;29440;48.208;11.162;2022-10-31T03:38:58;9.10;99.90
43810;DHT22;29440;48.208;11.162;2022-10-31T03:41:28;9.10;99.90
43810;DHT22;29440;48.208;11.162;2022-10-31T03:44:06;9.10;99.90
43810;DHT22;29440;48.208;11.162;2022-10-31T03:46:33;9.10;99.90
43810;DHT22;29440;48.208;11.162;2022-10-31T03:48:59;9.10;99.90
43810;DHT22;29440;48.208;11.162;2022-10-31T03:51:45;9.20;99.90
43810;DHT22;29440;48.208;11.162;2022-10-31T03:56:58;9.10;99.90
43810;DHT22;29440;48.208;11.162;2022-10-31T03:59:33;9.10;99.90
43810;DHT22;29440;48.208;11.162;2022-10-31T04:02:02;9.10;99.90
43810;DHT22;29440;48.208;11.162;2022-10-31T04:04:29;9.10;99.90
43810;DHT22;29440;48.208;11.162;2022-10-31T04:06:56;9.00;99.90
43810;DHT22;29440;48.208;11.162;2022-10-31T04:09:25;9.10;99.90
43810;DHT22;29440;48.208;11.162;2022-10-31T04:11:53;9.00;99.90
43810;DHT22;29440;48.208;11.162;2022-10-31T04:14:22;9.00;99.90
43810;DHT22;29440;48.208;11.162;2022-10-31T04:16:49;9.00;99.90
43810;DHT22;29440;48.208;11.162;2022-10-31T04:19:15;9.00;99.90
43810;DHT22;29440;48.208;11.162;2022-10-31T04:21:41;9.00;99.90
43810;DHT22;29440;48.208;11.162;2022-10-31T04:24:09;9.00;99.90
43810;DHT22;29440;48.208;11.162;2022-10-31T04:26:34;9.00;99.90
43810;DHT22;29440;48.208;11.162;2022-10-31T04:29:00;9.00;99.90
43810;DHT22;29440;48.208;11.162;2022-10-31T04:31:26;9.00;99.90
43810;DHT22;29440;48.208;11.162;2022-10-31T04:33:51;9.00;99.90
43810;DHT22;29440;48.208;11.162;2022-10-31T04:36:17;9.00;99.90
43810;DHT22;29440;48.208;11.162;2022-10-31T04:38:42;9.00;99.90
43810;DHT22;29440;48.208;11.162;2022-10-31T04:41:08;9.00;99.90
43810;DHT22;29440;48.208;11.162;2022-10-31T04:43:33;9.00;99.90
43810;DHT22;29440;48.208;11.162;2022-10-31T04:45:59;9.00;99.90
43810;DHT22;29440;48.208;11.162;2022-10-31T04:48:25;8.90;99.90
43810;DHT22;29440;48.208;11.162;2022-10-31T04:50:50;9.00;99.90
43810;DHT22;29440;48.208;11.162;2022-10-31T04:53:16;8.90;99.90
43810;DHT22;29440;48.208;11.162;2022-10-31T04:55:41;8.90;99.90
43810;DHT22;29440;48.208;11.162;2022-10-31T04:58:07;8.90;99.90
43810;DHT22;29440;48.208;11.162;2022-10-31T05:00:32;8.90;99.90
43810;DHT22;29440;48.208;11.162;2022-10-31T05:02:58;8.90;99.90
43810;DHT22;29440;48.208;11.162;2022-10-31T05:05:27;8.90;99.90
43810;DHT22;29440;48.208;11.162;2022-10-31T05:07:53;8.80;99.90
43810;DHT22;29440;48.208;11.162;2022-10-31T05:10:21;8.80;99.90
43810;DHT22;29440;48.208;11.162;2022-10-31T05:12:48;8.70;99.90
43810;DHT22;29440;48.208;11.162;2022-10-31T05:15:15;8.70;99.90
43810;DHT22;29440;48.208;11.162;2022-10-31T05:17:41;8.70;99.90
43810;DHT22;29440;48.208;11.162;2022-10-31T05:20:07;8.60;99.90
43810;DHT22;29440;48.208;11.162;2022-10-31T05:22:32;8.60;99.90
43810;DHT22;29440;48.208;11.162;2022-10-31T05:24:58;8.50;99.90
43810;DHT22;29440;48.208;11.162;2022-10-31T05:27:23;8.50;99.90
43810;DHT22;29440;48.208;11.162;2022-10-31T05:29:49;8.50;99.90
43810;DHT22;29440;48.208;11.162;2022-10-31T05:32:15;8.40;99.90
43810;DHT22;29440;48.208;11.162;2022-10-31T05:34:40;8.40;99.90
43810;DHT22;29440;48.208;11.162;2022-10-31T05:37:06;8.30;99.90
43810;DHT22;29440;48.208;11.162;2022-10-31T05:39:31;8.30;99.90
43810;DHT22;29440;48.208;11.162;2022-10-31T05:41:57;8.30;99.90
43810;DHT22;29440;48.208;11.162;2022-10-31T05:44:23;8.30;99.90
43810;DHT22;29440;48.208;11.162;2022-10-31T05:46:48;8.20;99.90
43810;DHT22;29440;48.208;11.162;2022-10-31T05:49:14;8.20;99.90
43810;DHT22;29440;48.208;11.162;2022-10-31T05:51:39;8.20;99.90
43810;DHT22;29440;48.208;11.162;2022-10-31T05:54:05;8.30;99.90
43810;DHT22;29440;48.208;11.162;2022-10-31T05:56:30;8.20;99.90
43810;DHT22;29440;48.208;11.162;2022-10-31T05:58:56;8.20;99.90
43810;DHT22;29440;48.208;11.162;2022-10-31T06:01:22;8.20;99.90
43810;DHT22;29440;48.208;11.162;2022-10-31T06:03:47;8.20;99.90
43810;DHT22;29440;48.208;11.162;2022-10-31T06:06:13;8.20;99.90
43810;DHT22;29440;48.208;11.162;2022-10-31T06:08:38;8.30;99.90
43810;DHT22;29440;48.208;11.162;2022-10-31T06:11:04;8.20;99.90
43810;DHT22;29440;48.208;11.162;2022-10-31T06:13:30;8.20;99.90
43810;DHT22;29440;48.208;11.162;2022-10-31T06:15:55;8.20;99.90
43810;DHT22;29440;48.208;11.162;2022-10-31T06:18:21;8.20;99.90
43810;DHT22;29440;48.208;11.162;2022-10-31T06:20:46;8.30;99.90
43810;DHT22;29440;48.208;11.162;2022-10-31T06:23:12;8.40;99.90
43810;DHT22;29440;48.208;11.162;2022-10-31T06:25:37;8.40;99.90
43810;DHT22;29440;48.208;11.162;2022-10-31T06:28:03;8.40;99.90
43810;DHT22;29440;48.208;11.162;2022-10-31T06:30:29;8.50;99.90
43810;DHT22;29440;48.208;11.162;2022-10-31T06:32:54;8.60;99.90
43810;DHT22;29440;48.208;11.162;2022-10-31T06:35:26;8.70;99.90
43810;DHT22;29440;48.208;11.162;2022-10-31T06:37:53;9.10;99.90
43810;DHT22;29440;48.208;11.162;2022-10-31T06:40:19;9.30;99.90
43810;DHT22;29440;48.208;11.162;2022-10-31T06:42:44;9.80;99.90
43810;DHT22;29440;48.208;11.162;2022-10-31T06:45:10;10.20;99.90
43810;DHT22;29440;48.208;11.162;2022-10-31T06:47:35;10.60;99.90
43810;DHT22;29440;48.208;11.162;2022-10-31T06:50:01;11.10;99.90
43810;DHT22;29440;48.208;11.162;2022-10-31T06:52:26;11.50;99.90
43810;DHT22;29440;48.208;11.162;2022-10-31T06:54:52;11.80;99.90
43810;DHT22;29440;48.208;11.162;2022-10-31T06:57:18;12.20;99.90
43810;DHT22;29440;48.208;11.162;2022-10-31T06:59:43;12.70;99.90
43810;DHT22;29440;48.208;11.162;2022-10-31T07:02:09;13.10;99.90
43810;DHT22;29440;48.208;11.162;2022-10-31T07:04:35;13.60;99.90
43810;DHT22;29440;48.208;11.162;2022-10-31T07:07:01;14.10;99.90
43810;DHT22;29440;48.208;11.162;2022-10-31T07:09:26;14.60;99.90
43810;DHT22;29440;48.208;11.162;2022-10-31T07:11:52;15.00;99.90
43810;DHT22;29440;48.208;11.162;2022-10-31T07:14:18;15.50;99.90
43810;DHT22;29440;48.208;11.162;2022-10-31T07:16:47;16.00;99.90
43810;DHT22;29440;48.208;11.162;2022-10-31T07:19:13;16.50;99.90
43810;DHT22;29440;48.208;11.162;2022-10-31T07:21:38;17.00;99.90
43810;DHT22;29440;48.208;11.162;2022-10-31T07:24:04;17.40;99.90
43810;DHT22;29440;48.208;11.162;2022-10-31T07:26:30;17.70;99.90
43810;DHT22;29440;48.208;11.162;2022-10-31T07:28:55;18.10;99.90
43810;DHT22;29440;48.208;11.162;2022-10-31T07:31:21;18.50;99.90
43810;DHT22;29440;48.208;11.162;2022-10-31T07:33:47;18.80;99.90
43810;DHT22;29440;48.208;11.162;2022-10-31T07:36:12;19.30;99.90
43810;DHT22;29440;48.208;11.162;2022-10-31T07:38:38;19.50;99.90
43810;DHT22;29440;48.208;11.162;2022-10-31T07:41:03;19.90;99.90
43810;DHT22;29440;48.208;11.162;2022-10-31T07:43:29;20.10;99.90
43810;DHT22;29440;48.208;11.162;2022-10-31T07:45:54;20.40;99.90
43810;DHT22;29440;48.208;11.162;2022-10-31T07:48:20;20.70;99.90
43810;DHT22;29440;48.208;11.162;2022-10-31T07:50:46;20.90;99.90
43810;DHT22;29440;48.208;11.162;2022-10-31T07:53:13;21.20;99.90
43810;DHT22;29440;48.208;11.162;2022-10-31T07:55:39;21.40;99.90
43810;DHT22;29440;48.208;11.162;2022-10-31T07:58:16;21.70;99.90
43810;DHT22;29440;48.208;11.162;2022-10-31T08:00:43;21.90;99.90
43810;DHT22;29440;48.208;11.162;2022-10-31T08:03:11;22.10;99.90
43810;DHT22;29440;48.208;11.162;2022-10-31T08:05:38;22.30;99.90
43810;DHT22;29440;48.208;11.162;2022-10-31T08:08:05;22.50;99.90
43810;DHT22;29440;48.208;11.162;2022-10-31T08:10:31;22.70;99.90
43810;DHT22;29440;48.208;11.162;2022-10-31T08:13:05;22.90;99.90
43810;DHT22;29440;48.208;11.162;2022-10-31T08:15:31;23.10;99.90
43810;DHT22;29440;48.208;11.162;2022-10-31T08:17:57;23.40;99.90
43810;DHT22;29440;48.208;11.162;2022-10-31T08:20:23;23.40;99.90
43810;DHT22;29440;48.208;11.162;2022-10-31T08:22:56;23.60;99.00
43810;DHT22;29440;48.208;11.162;2022-10-31T08:25:23;23.70;99.00
43810;DHT22;29440;48.208;11.162;2022-10-31T08:27:53;23.90;99.20
43810;DHT22;29440;48.208;11.162;2022-10-31T08:30:24;24.00;99.00
43810;DHT22;29440;48.208;11.162;2022-10-31T08:33:10;24.20;99.20
43810;DHT22;29440;48.208;11.162;2022-10-31T08:35:37;24.40;98.30
43810;DHT22;29440;48.208;11.162;2022-10-31T08:38:03;24.40;98.30
43810;DHT22;29440;48.208;11.162;2022-10-31T08:40:29;24.40;98.10
43810;DHT22;29440;48.208;11.162;2022-10-31T08:43:04;24.20;97.90
43810;DHT22;29440;48.208;11.162;2022-10-31T08:45:31;24.00;98.00
43810;DHT22;29440;48.208;11.162;2022-10-31T08:47:58;23.80;98.60
43810;DHT22;29440;48.208;11.162;2022-10-31T08:50:25;23.70;99.00
43810;DHT22;29440;48.208;11.162;2022-10-31T08:52:51;23.60;99.00
43810;DHT22;29440;48.208;11.162;2022-10-31T08:55:16;23.50;99.30
43810;DHT22;29440;48.208;11.162;2022-10-31T08:57:42;23.40;99.70
43810;DHT22;29440;48.208;11.162;2022-10-31T09:00:08;23.00;99.60
43810;DHT22;29440;48.208;11.162;2022-10-31T09:02:34;22.80;99.90
43810;DHT22;29440;48.208;11.162;2022-10-31T09:04:59;23.00;99.90
43810;DHT22;29440;48.208;11.162;2022-10-31T09:07:25;22.70;99.90
43810;DHT22;29440;48.208;11.162;2022-10-31T09:09:50;22.40;99.90
43810;DHT22;29440;48.208;11.162;2022-10-31T09:12:16;22.30;99.90
43810;DHT22;29440;48.208;11.162;2022-10-31T09:14:42;22.40;99.90
43810;DHT22;29440;48.208;11.162;2022-10-31T09:17:07;22.40;99.90
43810;DHT22;29440;48.208;11.162;2022-10-31T09:19:33;22.00;99.90
43810;DHT22;29440;48.208;11.162;2022-10-31T09:21:58;21.90;99.90
43810;DHT22;29440;48.208;11.162;2022-10-31T09:24:24;21.90;99.90
43810;DHT22;29440;48.208;11.162;2022-10-31T09:26:49;21.80;99.90
43810;DHT22;29440;48.208;11.162;2022-10-31T09:29:15;21.80;99.90
43810;DHT22;29440;48.208;11.162;2022-10-31T09:31:40;21.70;99.90
43810;DHT22;29440;48.208;11.162;2022-10-31T09:34:06;21.60;99.90
43810;DHT22;29440;48.208;11.162;2022-10-31T09:36:31;21.50;99.90
43810;DHT22;29440;48.208;11.162;2022-10-31T09:38:57;21.20;99.90
43810;DHT22;29440;48.208;11.162;2022-10-31T09:41:41;21.30;99.90
43810;DHT22;29440;48.208;11.162;2022-10-31T09:47:11;21.30;99.90
43810;DHT22;29440;48.208;11.162;2022-10-31T09:52:33;21.40;99.90
43810;DHT22;29440;48.208;11.162;2022-10-31T09:55:27;21.40;99.90
43810;DHT22;29440;48.208;11.162;2022-10-31T09:57:56;21.30;99.90
43810;DHT22;29440;48.208;11.162;2022-10-31T10:00:23;21.30;99.90
43810;DHT22;29440;48.208;11.162;2022-10-31T10:05:53;21.10;99.90
43810;DHT22;29440;48.208;11.162;2022-10-31T10:08:23;21.10;99.90
43810;DHT22;29440;48.208;11.162;2022-10-31T10:13:53;20.80;99.90
43810;DHT22;29440;48.208;11.162;2022-10-31T10:16:27;20.70;99.90
43810;DHT22;29440;48.208;11.162;2022-10-31T10:32:30;20.00;99.90
43810;DHT22;29440;48.208;11.162;2022-10-31T10:35:25;20.00;99.90
43810;DHT22;29440;48.208;11.162;2022-10-31T10:37:52;19.90;99.90
43810;DHT22;29440;48.208;11.162;2022-10-31T10:40:23;19.80;99.90
43810;DHT22;29440;48.208;11.162;2022-10-31T10:48:45;19.60;99.90
43810;DHT22;29440;48.208;11.162;2022-10-31T10:51:21;19.40;99.90
43810;DHT22;29440;48.208;11.162;2022-10-31T11:00:31;19.30;99.90
43810;DHT22;29440;48.208;11.162;2022-10-31T11:02:57;19.30;99.90
43810;DHT22;29440;48.208;11.162;2022-10-31T11:05:44;19.30;99.90
43810;DHT22;29440;48.208;11.162;2022-10-31T11:08:44;19.30;99.90
43810;DHT22;29440;48.208;11.162;2022-10-31T11:13:45;19.60;99.90
43810;DHT22;29440;48.208;11.162;2022-10-31T11:16:14;19.80;99.90
43810;DHT22;29440;48.208;11.162;2022-10-31T11:18:44;19.90;99.90
43810;DHT22;29440;48.208;11.162;2022-10-31T11:21:28;20.00;99.90
43810;DHT22;29440;48.208;11.162;2022-10-31T11:26:35;20.20;99.90
43810;DHT22;29440;48.208;11.162;2022-10-31T11:29:04;20.20;99.90
43810;DHT22;29440;48.208;11.162;2022-10-31T11:31:32;20.30;99.90
43810;DHT22;29440;48.208;11.162;2022-10-31T11:34:06;20.40;99.90
43810;DHT22;29440;48.208;11.162;2022-10-31T11:36:38;20.50;99.90
43810;DHT22;29440;48.208;11.162;2022-10-31T11:39:05;20.50;99.90
43810;DHT22;29440;48.208;11.162;2022-10-31T11:41:38;20.60;99.90
43810;DHT22;29440;48.208;11.162;2022-10-31T11:44:14;20.60;99.90
43810;DHT22;29440;48.208;11.162;2022-10-31T11:46:41;20.70;99.90
43810;DHT22;29440;48.208;11.162;2022-10-31T11:49:18;20.70;99.90
43810;DHT22;29440;48.208;11.162;2022-10-31T11:51:49;20.70;99.90
43810;DHT22;29440;48.208;11.162;2022-10-31T11:54:24;20.70;99.90
43810;DHT22;29440;48.208;11.162;2022-10-31T11:56:51;20.70;99.90
43810;DHT22;29440;48.208;11.162;2022-10-31T11:59:28;20.60;99.90
43810;DHT22;29440;48.208;11.162;2022-10-31T12:01:56;20.40;99.90
43810;DHT22;29440;48.208;11.162;2022-10-31T12:04:36;20.30;99.90
43810;DHT22;29440;48.208;11.162;2022-10-31T12:07:02;20.40;99.90
43810;DHT22;29440;48.208;11.162;2022-10-31T12:09:30;20.30;99.90
43810;DHT22;29440;48.208;11.162;2022-10-31T12:17:43;20.30;99.90
43810;DHT22;29440;48.208;11.162;2022-10-31T12:23:16;20.40;99.90
43810;DHT22;29440;48.208;11.162;2022-10-31T12:43:28;21.00;99.90
43810;DHT22;29440;48.208;11.162;2022-10-31T12:45:59;21.10;99.90
43810;DHT22;29440;48.208;11.162;2022-10-31T12:48:47;21.10;99.90
43810;DHT22;29440;48.208;11.162;2022-10-31T13:00:12;21.20;99.90
43810;DHT22;29440;48.208;11.162;2022-10-31T13:02:59;21.10;99.90
43810;DHT22;29440;48.208;11.162;2022-10-31T13:05:36;21.00;99.90
43810;DHT22;29440;48.208;11.162;2022-10-31T13:08:06;20.80;99.90
43810;DHT22;29440;48.208;11.162;2022-10-31T13:10:45;20.60;99.90
43810;DHT22;29440;48.208;11.162;2022-10-31T13:13:43;20.60;99.90
43810;DHT22;29440;48.208;11.162;2022-10-31T13:16:21;20.40;99.90
43810;DHT22;29440;48.208;11.162;2022-10-31T13:18:55;20.30;99.90
43810;DHT22;29440;48.208;11.162;2022-10-31T13:21:27;20.30;99.90
43810;DHT22;29440;48.208;11.162;2022-10-31T13:23:57;20.10;99.90
43810;DHT22;29440;48.208;11.162;2022-10-31T13:26:43;20.00;99.90
43810;DHT22;29440;48.208;11.162;2022-10-31T13:31:46;19.80;99.90
43810;DHT22;29440;48.208;11.162;2022-10-31T13:34:40;19.70;99.90
43810;DHT22;29440;48.208;11.162;2022-10-31T13:37:13;19.60;99.90
43810;DHT22;29440;48.208;11.162;2022-10-31T13:44:55;19.60;99.90
43810;DHT22;29440;48.208;11.162;2022-10-31T13:47:31;19.70;99.90
43810;DHT22;29440;48.208;11.162;2022-10-31T13:50:24;19.60;99.90
43810;DHT22;29440;48.208;11.162;2022-10-31T13:52:50;19.60;99.90
43810;DHT22;29440;48.208;11.162;2022-10-31T13:58:18;19.50;99.90
43810;DHT22;29440;48.208;11.162;2022-10-31T14:00:44;19.50;99.90
43810;DHT22;29440;48.208;11.162;2022-10-31T14:03:18;19.60;99.90
43810;DHT22;29440;48.208;11.162;2022-10-31T14:05:52;19.50;99.90
43810;DHT22;29440;48.208;11.162;2022-10-31T14:08:21;19.50;99.90
43810;DHT22;29440;48.208;11.162;2022-10-31T14:10:50;19.60;99.90
43810;DHT22;29440;48.208;11.162;2022-10-31T14:13:34;19.50;99.90
43810;DHT22;29440;48.208;11.162;2022-10-31T14:16:16;19.40;99.90
43810;DHT22;29440;48.208;11.162;2022-10-31T14:18:50;19.40;99.90
43810;DHT22;29440;48.208;11.162;2022-10-31T14:23:49;19.30;99.90
43810;DHT22;29440;48.208;11.162;2022-10-31T14:28:52;19.30;99.90
43810;DHT22;29440;48.208;11.162;2022-10-31T14:31:39;19.30;99.90
43810;DHT22;29440;48.208;11.162;2022-10-31T14:37:16;19.20;99.90
43810;DHT22;29440;48.208;11.162;2022-10-31T14:51:46;19.00;99.90
43810;DHT22;29440;48.208;11.162;2022-10-31T14:54:37;18.90;99.90
43810;DHT22;29440;48.208;11.162;2022-10-31T14:57:06;18.90;99.90
43810;DHT22;29440;48.208;11.162;2022-10-31T14:59:36;18.70;99.90
43810;DHT22;29440;48.208;11.162;2022-10-31T15:02:16;18.70;99.90
43810;DHT22;29440;48.208;11.162;2022-10-31T15:04:45;18.70;99.90
43810;DHT22;29440;48.208;11.162;2022-10-31T15:07:19;18.60;99.90
43810;DHT22;29440;48.208;11.162;2022-10-31T15:09:59;18.60;99.90
43810;DHT22;29440;48.208;11.162;2022-10-31T15:12:30;18.50;99.90
43810;DHT22;29440;48.208;11.162;2022-10-31T15:14:56;18.60;99.90
43810;DHT22;29440;48.208;11.162;2022-10-31T15:17:29;18.40;99.90
43810;DHT22;29440;48.208;11.162;2022-10-31T15:19:55;18.40;99.90
43810;DHT22;29440;48.208;11.162;2022-10-31T15:22:25;18.40;99.90
43810;DHT22;29440;48.208;11.162;2022-10-31T15:24:53;18.30;99.90
43810;DHT22;29440;48.208;11.162;2022-10-31T15:27:22;18.20;99.90
43810;DHT22;29440;48.208;11.162;2022-10-31T15:29:56;18.20;99.90
43810;DHT22;29440;48.208;11.162;2022-10-31T15:32:27;18.20;99.90
43810;DHT22;29440;48.208;11.162;2022-10-31T15:34:54;18.20;99.90
43810;DHT22;29440;48.208;11.162;2022-10-31T15:37:23;18.10;99.90
43810;DHT22;29440;48.208;11.162;2022-10-31T15:39:51;18.00;99.90
43810;DHT22;29440;48.208;11.162;2022-10-31T15:42:39;18.10;99.90
43810;DHT22;29440;48.208;11.162;2022-10-31T15:45:22;18.00;99.90
43810;DHT22;29440;48.208;11.162;2022-10-31T15:50:50;17.90;99.90
43810;DHT22;29440;48.208;11.162;2022-10-31T15:53:25;17.80;99.90
43810;DHT22;29440;48.208;11.162;2022-10-31T15:56:08;17.80;99.90
43810;DHT22;29440;48.208;11.162;2022-10-31T15:58:43;17.80;99.90
43810;DHT22;29440;48.208;11.162;2022-10-31T16:03:58;17.60;99.90
43810;DHT22;29440;48.208;11.162;2022-10-31T16:06:24;17.50;99.90
43810;DHT22;29440;48.208;11.162;2022-10-31T16:08:51;17.50;99.90
43810;DHT22;29440;48.208;11.162;2022-10-31T16:11:24;17.40;99.90
43810;DHT22;29440;48.208;11.162;2022-10-31T16:16:24;17.30;99.90
43810;DHT22;29440;48.208;11.162;2022-10-31T16:18:52;17.20;99.90
43810;DHT22;29440;48.208;11.162;2022-10-31T16:21:30;17.10;99.90
43810;DHT22;29440;48.208;11.162;2022-10-31T16:24:00;17.00;99.90
43810;DHT22;29440;48.208;11.162;2022-10-31T16:26:27;17.00;99.90
43810;DHT22;29440;48.208;11.162;2022-10-31T16:28:57;16.90;99.90
43810;DHT22;29440;48.208;11.162;2022-10-31T16:31:29;16.90;99.90
43810;DHT22;29440;48.208;11.162;2022-10-31T16:34:15;16.80;99.90
43810;DHT22;29440;48.208;11.162;2022-10-31T16:36:41;16.70;99.90
43810;DHT22;29440;48.208;11.162;2022-10-31T16:39:07;16.70;99.90
43810;DHT22;29440;48.208;11.162;2022-10-31T16:41:50;16.70;99.90
43810;DHT22;29440;48.208;11.162;2022-10-31T16:44:26;16.60;99.90
43810;DHT22;29440;48.208;11.162;2022-10-31T16:47:08;16.60;99.90
43810;DHT22;29440;48.208;11.162;2022-10-31T16:49:34;16.50;99.90
43810;DHT22;29440;48.208;11.162;2022-10-31T16:51:59;16.40;99.90
43810;DHT22;29440;48.208;11.162;2022-10-31T16:54:25;16.30;99.90
43810;DHT22;29440;48.208;11.162;2022-10-31T16:56:50;16.40;99.90
43810;DHT22;29440;48.208;11.162;2022-10-31T16:59:16;16.20;99.90
43810;DHT22;29440;48.208;11.162;2022-10-31T17:01:44;16.10;99.90
43810;DHT22;29440;48.208;11.162;2022-10-31T17:04:14;16.10;99.90
43810;DHT22;29440;48.208;11.162;2022-10-31T17:06:40;16.00;99.90
43810;DHT22;29440;48.208;11.162;2022-10-31T17:09:06;15.90;99.90
43810;DHT22;29440;48.208;11.162;2022-10-31T17:11:31;15.90;99.90
43810;DHT22;29440;48.208;11.162;2022-10-31T17:13:57;15.80;99.90
43810;DHT22;29440;48.208;11.162;2022-10-31T17:16:23;15.70;99.90
43810;DHT22;29440;48.208;11.162;2022-10-31T17:18:49;15.60;99.90
43810;DHT22;29440;48.208;11.162;2022-10-31T17:21:19;15.50;99.90
43810;DHT22;29440;48.208;11.162;2022-10-31T17:23:47;15.40;99.90
43810;DHT22;29440;48.208;11.162;2022-10-31T17:26:13;15.30;99.90
43810;DHT22;29440;48.208;11.162;2022-10-31T17:28:39;15.20;99.90
43810;DHT22;29440;48.208;11.162;2022-10-31T17:31:05;15.10;99.90
43810;DHT22;29440;48.208;11.162;2022-10-31T17:33:31;15.00;99.90
43810;DHT22;29440;48.208;11.162;2022-10-31T17:35:56;15.00;99.90
43810;DHT22;29440;48.208;11.162;2022-10-31T17:38:22;14.90;99.90
43810;DHT22;29440;48.208;11.162;2022-10-31T17:40:48;14.90;99.90
43810;DHT22;29440;48.208;11.162;2022-10-31T17:43:13;14.80;99.90
43810;DHT22;29440;48.208;11.162;2022-10-31T17:45:40;14.80;99.90
43810;DHT22;29440;48.208;11.162;2022-10-31T17:48:06;14.70;99.90
43810;DHT22;29440;48.208;11.162;2022-10-31T17:50:32;14.60;99.90
43810;DHT22;29440;48.208;11.162;2022-10-31T17:53:01;14.50;99.90
43810;DHT22;29440;48.208;11.162;2022-10-31T17:55:27;14.40;99.90
43810;DHT22;29440;48.208;11.162;2022-10-31T17:57:53;14.40;99.90
43810;DHT22;29440;48.208;11.162;2022-10-31T18:00:19;14.30;99.90
43810;DHT22;29440;48.208;11.162;2022-10-31T18:02:46;14.20;99.90
43810;DHT22;29440;48.208;11.162;2022-10-31T18:05:12;14.20;99.90
43810;DHT22;29440;48.208;11.162;2022-10-31T18:07:38;14.10;99.90
43810;DHT22;29440;48.208;11.162;2022-10-31T18:10:04;14.10;99.90